Time;durP1;ratioP1;P1;durP2;ratioP2;P2;SDS_P1;SDS_P2;PMS_P1;PMS_P2;Temp;Humidity;BMP_temperature;BMP_pressure;BME280_temperature;BME280_humidity;BME280_pressure;Samples;Min_cycle;Max_cycle;Signal;HPM_P1;HPM_P2
2022/10/02 06:33:51;;;;;;;;;;;;;;;;;;5175961;27;74802;-71
2022/10/02 06:36:22;;;;;;;;;;;;;;;;;;5176419;27;7590;-73
2022/10/02 06:38:47;;;;;;;;;;;;;;;;;;5180712;27;7559;-72
2022/10/02 06:41:12;;;;;;;;;;;;;;;;;;5181089;27;7606;-75
2022/10/02 06:43:39;;;;;;;;;;;;;;;;;;5177206;27;7528;-72
2022/10/02 06:46:07;;;;;;;;;;;;;;;;;;5177642;27;7563;-73
2022/10/02 06:48:39;;;;;;;;;;;;;;;;;;5177966;27;7554;-75
2022/10/02 06:51:04;;;;;;;;;;;;;;;;;;5180512;27;7567;-71
2022/10/02 06:53:30;;;;;;;;;;;;;;;;;;5176816;27;7605;-71
2022/10/02 06:55:58;;;;;;;;;;;;;;;;;;5177287;27;7528;-72
2022/10/02 06:58:23;;;;;;;;;;;;;;;;;;5180401;27;7555;-72
2022/10/02 07:00:48;;;;;;;;;;;;;;;;;;5180510;27;7556;-71
2022/10/02 07:03:17;;;;;;;;;;;;;;;;;;5176070;27;7616;-71
2022/10/02 07:05:43;;;;;;;;;;;;;;;;;;5177631;27;8239;-72
2022/10/02 07:08:09;;;;;;;;;;;;;;;;;;5180301;27;7579;-70
2022/10/02 07:10:34;;;;;;;;;;;;;;;;;;5172298;27;7563;-72
2022/10/02 07:13:00;;;;;;;;;;;;;;;;;;5175977;27;7579;-72
2022/10/02 07:15:25;;;;;;;;;;;;;;;;;;5176806;27;7583;-72
2022/10/02 07:17:50;;;;;;;;;;;;;;;;;;5181572;27;7524;-69
2022/10/02 07:20:15;;;;;;;;;;;;;;;;;;5180335;27;7535;-72
2022/10/02 07:22:40;;;;;;;;;;;;;;;;;;5180102;27;7673;-74
2022/10/02 07:25:05;;;;;;;;;;;;;;;;;;5179604;27;7542;-74
2022/10/02 07:27:30;;;;;;;;;;;;;;;;;;5176543;27;7589;-76
2022/10/02 07:29:56;;;;;;;;;;;;;;;;;;5175481;27;7624;-76
2022/10/02 07:32:21;;;;;;;;;;;;;;;;;;5179216;27;7519;-74
2022/10/02 07:34:46;;;;;;;;;;;;;;;;;;5180010;27;7530;-74
2022/10/02 07:37:11;;;;;;;;;;;;;;;;;;5175046;27;7633;-75
2022/10/02 07:39:36;;;;;;;;;;;;;;;;;;5175756;27;7543;-75
2022/10/02 07:42:01;;;;;;;;;;;;;;;;;;5178859;27;8054;-77
2022/10/02 07:44:26;;;;;;;;;;;;;;;;;;5170042;27;8013;-76
2022/10/02 07:46:53;;;;;;;;;;;;;;;;;;5166641;27;7591;-74
2022/10/02 07:49:18;;;;;;;;;;;;;;;;;;5165213;27;7544;-76
2022/10/02 07:51:46;;;;;;;;;;;;;;;;;;5165351;27;7682;-76
2022/10/02 07:54:12;;;;;;;;;;;;;;;;;;5166576;27;7567;-75
2022/10/02 07:56:37;;;;;;;;;;;;;;;;;;5165680;27;7538;-74
2022/10/02 07:59:02;;;;;;;;;;;;;;;;;;5167201;27;7538;-77
2022/10/02 08:01:27;;;;;;;;;;;;;;;;;;5165754;27;7967;-75
2022/10/02 08:03:52;;;;;;;;;;;;;;;;;;5167126;27;7535;-76
2022/10/02 08:06:17;;;;;;;;;;;;;;;;;;5165073;27;7532;-77
2022/10/02 08:08:42;;;;;;;;;;;;;;;;;;5159144;27;7641;-80
2022/10/02 08:11:08;;;;;;;;;;;;;;;;;;5166975;27;7619;-78
2022/10/02 08:13:33;;;;;;;;;;;;;;;;;;5165927;27;7583;-76
2022/10/02 08:15:58;;;;;;;;;;;;;;;;;;5166779;27;8013;-78
2022/10/02 08:18:24;;;;;;;;;;;;;;;;;;5166731;27;7578;-76
2022/10/02 08:20:49;;;;;;;;;;;;;;;;;;5167113;27;7575;-75
2022/10/02 08:23:14;;;;;;;;;;;;;;;;;;5165019;27;7520;-76
2022/10/02 08:25:40;;;;;;;;;;;;;;;;;;5166494;27;7528;-75
2022/10/02 08:28:05;;;;;;;;;;;;;;;;;;5165050;27;7563;-76
2022/10/02 08:30:30;;;;;;;;;;;;;;;;;;5166565;27;7619;-76
2022/10/02 08:32:55;;;;;;;;;;;;;;;;;;5159629;27;7528;-74
2022/10/02 08:35:20;;;;;;;;;;;;;;;;;;5162116;27;7555;-77
2022/10/02 08:37:45;;;;;;;;;;;;;;;;;;5166528;27;7579;-74
2022/10/02 08:40:10;;;;;;;;;;;;;;;;;;5166149;27;7528;-73
2022/10/02 08:42:35;;;;;;;;;;;;;;;;;;5165306;27;7528;-74
2022/10/02 08:45:01;;;;;;;;;;;;;;;;;;5166200;27;7524;-75
2022/10/02 08:47:27;;;;;;;;;;;;;;;;;;5166153;27;7575;-74
2022/10/02 08:49:52;;;;;;;;;;;;;;;;;;5163308;27;7567;-78
2022/10/02 08:52:18;;;;;;;;;;;;;;;;;;5159656;27;7578;-76
2022/10/02 08:54:45;;;;;;;;;;;;;;;;;;5165733;27;7536;-77
2022/10/02 08:57:12;;;;;;;;;;;;;;;;;;5164216;27;7563;-79
2022/10/02 08:59:37;;;;;;;;;;;;;;;;;;5170736;27;7563;-75
2022/10/02 09:02:02;;;;;;;;;;;;;;;;;;5168068;27;7530;-67
2022/10/02 09:04:27;;;;;;;;;;;;;;;;;;5162389;27;7571;-67
2022/10/02 09:06:52;;;;;;;;;;;;;;;;;;5164268;27;7536;-66
2022/10/02 09:09:17;;;;;;;;;;;;;;;;;;5164969;27;7567;-67
2022/10/02 09:11:44;;;;;;;;;;;;;;;;;;5151250;27;12726;-66
2022/10/02 09:14:33;;;;;;;;;;;;;;;;;;5148346;27;9849;-72
2022/10/02 09:19:11;;;;;;;;;4.33;3.00;;;;;;;;5080750;27;76903;-66
2022/10/02 09:21:53;;;;;;;;;3.00;2.00;;;;;;;;5136586;27;21014;-65
2022/10/02 09:24:37;;;;;;;;;4.00;4.00;;;;;;;;5136875;27;10367;-65
2022/10/02 09:27:29;;;;;;;;;5.00;4.25;;;;;;;;5135308;27;9145;-66
2022/10/02 09:30:00;;;;;;;;;2.50;2.00;;;;;;;;5137215;27;11431;-64
2022/10/02 09:32:45;;;;;;;;;4.25;3.75;;;;;;;;5136043;27;13428;-71
2022/10/02 09:36:10;;;;;;;;;7.33;6.33;;;;;;;;5192945;27;76954;-74
2022/10/02 09:38:35;;;;;;;;;2.00;2.00;;;;;;;;5197247;27;21373;-76
2022/10/02 09:41:19;;;;;;;;;6.00;3.33;;;;;;;;5200087;27;11329;-78
2022/10/02 09:44:05;;;;;;;;;1.00;1.00;;;;;;;;5200169;27;11892;-74
2022/10/02 09:46:41;;;;;;;;;2.75;2.00;;;;;;;;5199143;27;12088;-74
2022/10/02 09:49:10;;;;;;;;;1.20;0.00;;;;;;;;5199035;27;10611;-75
2022/10/02 09:51:44;;;;;;;;;1.00;1.00;;;;;;;;5186598;27;10589;-74
2022/10/02 09:54:13;;;;;;;;;3.20;2.00;;;;;;;;5157714;27;9783;-78
2022/10/02 09:56:38;;;;;;;;;17.60;15.80;;;;;;;;5138675;27;10643;-75
2022/10/02 09:59:22;;;;;;;;;1.00;1.00;;;;;;;;5155586;27;22497;-74
2022/10/02 10:02:00;;;;;;;;;1.60;1.00;;;;;;;;5155770;27;24038;-84
2022/10/02 10:04:29;;;;;;;;;1.40;0.20;;;;;;;;5138577;27;8784;-74
2022/10/02 10:07:00;;;;;;;;;2.00;0.00;;;;;;;;5137226;27;12766;-74
2022/10/02 10:09:48;;;;;;;;;1.75;1.00;;;;;;;;5133544;27;12249;-76
2022/10/02 10:12:32;;;;;;;;;2.00;1.25;;;;;;;;5102175;27;14068;-75
2022/10/02 10:14:57;;;;;;;;;3.25;3.25;;;;;;;;5135528;27;11770;-75
2022/10/02 10:17:47;;;;;;;;;2.00;2.00;;;;;;;;5154457;27;10535;-75
2022/10/02 10:20:15;;;;;;;;;0.00;0.00;;;;;;;;5157410;27;11457;-74
2022/10/02 10:22:50;;;;;;;;;1.25;1.00;;;;;;;;5138228;27;9779;-76
2022/10/02 10:25:34;;;;;;;;;4.00;0.00;;;;;;;;5138706;27;12425;-75
2022/10/02 10:28:05;;;;;;;;;0.50;0.50;;;;;;;;5155518;27;10458;-75
2022/10/02 10:30:43;;;;;;;;;0.00;0.00;;;;;;;;5138497;27;11828;-75
2022/10/02 10:33:26;;;;;;;;;1.00;1.00;;;;;;;;5156771;27;8883;-76
2022/10/02 10:38:31;;;;;;;;;0.00;0.00;;;;;;;;5138782;27;9190;-73
2022/10/02 10:39:16;;;;;;;;;0.75;0.25;;;;;;;;5154638;27;8951;-75
2022/10/02 10:41:41;;;;;;;;;0.75;0.75;;;;;;;;5155880;27;8882;-71
2022/10/02 10:44:06;;;;;;;;;3.00;1.00;;;;;;;;5155455;27;9524;-75
2022/10/02 10:46:34;;;;;;;;;2.00;2.00;;;;;;;;5145459;27;11572;-75
2022/10/02 10:49:08;;;;;;;;;2.00;2.00;;;;;;;;5120554;27;11235;-74
2022/10/02 10:51:52;;;;;;;;;2.75;1.00;;;;;;;;5140958;27;8782;-77
2022/10/02 10:54:23;;;;;;;;;1.00;1.00;;;;;;;;5122774;27;11668;-78
2022/10/02 10:56:53;;;;;;;;;1.25;1.00;;;;;;;;5120763;27;10661;-77
2022/10/02 10:59:33;;;;;;;;;0.50;0.50;;;;;;;;5142937;27;9734;-74
2022/10/02 11:02:22;;;;;;;;;2.25;1.00;;;;;;;;5123873;27;11762;-80
2022/10/02 11:05:05;;;;;;;;;2.25;2.00;;;;;;;;5141880;27;11383;-80
2022/10/02 11:07:33;;;;;;;;;3.25;1.75;;;;;;;;5121967;27;9037;-76
2022/10/02 11:10:06;;;;;;;;;1.00;0.00;;;;;;;;5120457;28;13650;-76
2022/10/02 11:12:38;;;;;;;;;2.50;1.75;;;;;;;;5115696;27;13478;-76
2022/10/02 11:15:04;;;;;;;;;1.00;1.00;;;;;;;;5142898;27;13148;-75
2022/10/02 11:17:30;;;;;;;;;2.00;0.33;;;;;;;;5122063;27;12091;-74
2022/10/02 11:19:58;;;;;;;;;1.00;1.00;;;;;;;;5123885;27;13694;-76
2022/10/02 11:22:36;;;;;;;;;1.00;0.00;;;;;;;;5123614;27;13598;-74
2022/10/02 11:25:20;;;;;;;;;1.50;1.00;;;;;;;;5142438;27;8779;-74
2022/10/02 11:27:57;;;;;;;;;1.00;1.00;;;;;;;;5141023;27;9998;-78
2022/10/02 11:30:24;;;;;;;;;1.50;0.00;;;;;;;;5143002;27;8759;-83
2022/10/02 11:33:16;;;;;;;;;1.00;1.00;;;;;;;;5142866;27;10621;-77
2022/10/02 11:35:46;;;;;;;;;2.00;1.75;;;;;;;;5142546;27;10093;-74
2022/10/02 11:38:31;;;;;;;;;3.25;1.00;;;;;;;;5142657;27;11874;-74
2022/10/02 11:40:56;;;;;;;;;2.00;2.00;;;;;;;;5121969;28;11388;-81
2022/10/02 11:43:26;;;;;;;;;2.00;1.00;;;;;;;;5121427;28;10281;-76
2022/10/02 11:45:59;;;;;;;;;1.00;1.00;;;;;;;;5122053;27;8854;-80
2022/10/02 11:48:24;;;;;;;;;0.50;0.50;;;;;;;;5103565;28;9383;-79
2022/10/02 11:51:16;;;;;;;;;0.00;0.00;;;;;;;;5121555;27;11349;-79
2022/10/02 11:53:47;;;;;;;;;1.00;1.00;;;;;;;;5037803;28;8812;-74
2022/10/02 11:56:13;;;;;;;;;2.00;1.75;;;;;;;;5038492;28;9210;-71
2022/10/02 11:58:56;;;;;;;;;33.50;30.25;;;;;;;;5033877;28;11376;-73
2022/10/02 12:01:24;;;;;;;;;4.67;4.67;;;;;;;;5020921;28;22974;-74
2022/10/02 12:04:15;;;;;;;;;2.00;1.00;;;;;;;;5020606;28;23025;-73
2022/10/02 12:06:59;;;;;;;;;2.50;1.25;;;;;;;;5030461;28;11449;-74
2022/10/02 12:09:42;;;;;;;;;2.00;2.00;;;;;;;;5025118;28;10769;-78
2022/10/02 12:14:46;;;;;;;;;3.00;2.67;;;;;;;;5095594;28;8893;-79
2022/10/02 12:17:30;;;;;;;;;3.75;3.00;;;;;;;;5098865;28;11621;-77
2022/10/02 12:28:42;;;;;;;;;2.00;2.00;;;;;;;;4996985;28;11350;-74
2022/10/02 12:31:18;;;;;;;;;3.00;3.00;;;;;;;;4997702;28;8893;-78
2022/10/02 12:33:46;;;;;;;;;8.33;7.33;;;;;;;;4997685;28;8968;-74
2022/10/02 12:36:11;;;;;;;;;23.50;23.50;;;;;;;;4998240;28;11439;-81
2022/10/02 12:38:58;;;;;;;;;0.00;0.00;;;;;;;;4996979;28;24728;-80
2022/10/02 12:41:41;;;;;;;;;3.00;2.00;;;;;;;;4997935;28;22544;-81
2022/10/02 12:44:26;;;;;;;;;4.00;3.00;;;;;;;;4997883;28;9279;-78
2022/10/02 12:46:58;;;;;;;;;3.00;2.00;;;;;;;;4997567;28;8870;-79
2022/10/02 12:49:35;;;;;;;;;4.00;4.00;;;;;;;;4997373;28;9791;-77
2022/10/02 12:52:27;;;;;;;;;3.00;2.33;;;;;;;;4996433;28;9225;-79
2022/10/02 12:55:11;;;;;;;;;19.50;18.25;;;;;;;;4996769;28;11822;-80
2022/10/02 12:57:52;;;;;;;;;4.00;3.00;;;;;;;;4995579;28;23530;-79
2022/10/02 13:00:24;;;;;;;;;4.50;3.25;;;;;;;;4978777;28;22822;-78
2022/10/02 13:02:52;;;;;;;;;1.50;1.00;;;;;;;;4996907;28;10580;-78
2022/10/02 13:05:24;;;;;;;;;1.00;1.00;;;;;;;;5046540;28;13655;-75
2022/10/02 13:08:04;;;;;;;;;2.00;2.00;;;;;;;;5095994;28;8752;-76
2022/10/02 13:10:44;;;;;;;;;1.50;0.25;;;;;;;;5080208;28;10627;-76
2022/10/02 13:13:18;;;;;;;;;1.75;1.75;;;;;;;;5110914;22;11656;-80
2022/10/02 13:15:53;;;;;;;;;3.75;3.00;;;;;;;;5099765;28;9668;-78
2022/10/02 13:18:23;;;;;;;;;2.00;2.00;;;;;;;;5091768;28;11380;-77
2022/10/02 13:21:03;;;;;;;;;2.00;1.67;;;;;;;;5079574;28;10553;-76
2022/10/02 13:23:30;;;;;;;;;2.50;2.00;;;;;;;;5079334;28;9299;-76
2022/10/02 13:26:14;;;;;;;;;3.00;2.50;;;;;;;;5060963;28;11201;-77
2022/10/02 13:28:43;;;;;;;;;3.25;2.75;;;;;;;;5076978;28;12527;-77
2022/10/02 13:31:27;;;;;;;;;2.25;2.00;;;;;;;;5079342;28;8799;-77
2022/10/02 13:34:05;;;;;;;;;3.33;2.33;;;;;;;;5060883;28;13447;-80
2022/10/02 13:36:39;;;;;;;;;4.00;4.00;;;;;;;;5061588;28;13538;-77
2022/10/02 13:39:07;;;;;;;;;5.33;2.00;;;;;;;;5061004;28;11844;-74
2022/10/02 13:41:51;;;;;;;;;3.50;2.25;;;;;;;;5079028;28;10366;-76
2022/10/02 13:44:19;;;;;;;;;4.75;3.00;;;;;;;;5078865;28;13225;-77
2022/10/02 13:46:45;;;;;;;;;5.25;2.25;;;;;;;;5079113;28;11445;-77
2022/10/02 13:49:52;;;;;;;;;4.33;3.00;;;;;;;;5076724;28;11301;-74
2022/10/02 13:52:27;;;;;;;;;3.50;2.50;;;;;;;;5015796;28;12102;-75
2022/10/02 13:55:07;;;;;;;;;4.00;4.00;;;;;;;;5016385;28;11398;-74
2022/10/02 13:57:32;;;;;;;;;5.33;4.33;;;;;;;;5016047;28;11399;-75
2022/10/02 14:00:03;;;;;;;;;10.33;7.33;;;;;;;;5033019;28;11352;-75
2022/10/02 14:02:54;;;;;;;;;6.00;5.00;;;;;;;;5035558;28;21425;-76
2022/10/02 14:05:36;;;;;;;;;14.75;11.75;;;;;;;;5035922;28;22070;-80
2022/10/02 14:08:10;;;;;;;;;8.00;8.00;;;;;;;;5033341;28;23550;-76
2022/10/02 14:10:44;;;;;;;;;4.67;4.00;;;;;;;;5035569;28;22509;-74
2022/10/02 14:13:13;;;;;;;;;5.33;5.00;;;;;;;;5036308;28;10760;-74
2022/10/02 14:15:39;;;;;;;;;6.00;5.33;;;;;;;;5035750;28;10412;-73
2022/10/02 14:18:19;;;;;;;;;4.00;4.00;;;;;;;;5017091;28;12177;-76
2022/10/02 14:20:59;;;;;;;;;7.00;4.00;;;;;;;;5019758;28;13790;-77
2022/10/02 14:23:28;;;;;;;;;3.00;3.00;;;;;;;;5063574;28;9021;-76
2022/10/02 14:26:12;;;;;;;;;2.00;2.00;;;;;;;;5102094;28;10035;-75
2022/10/02 14:28:52;;;;;;;;;2.00;2.00;;;;;;;;5073586;28;10785;-75
2022/10/02 14:31:21;;;;;;;;;3.67;3.67;;;;;;;;5064004;28;8974;-74
2022/10/02 14:34:04;;;;;;;;;3.00;2.00;;;;;;;;5082068;28;11445;-72
2022/10/02 14:36:30;;;;;;;;;2.00;2.00;;;;;;;;5081930;28;10358;-73
2022/10/02 14:39:14;;;;;;;;;3.67;3.67;;;;;;;;5062679;28;9470;-70
2022/10/02 14:42:12;;;;;;;;;4.33;4.00;;;;;;;;5081684;28;11388;-75
2022/10/02 14:44:38;;;;;;;;;5.00;3.33;;;;;;;;5018833;28;11427;-73
2022/10/02 14:47:16;;;;;;;;;3.00;3.00;;;;;;;;5019295;28;11323;-72
2022/10/02 14:50:16;;;;;;;;;4.00;4.00;;;;;;;;5031627;28;11622;-73
2022/10/02 14:53:00;;;;;;;;;3.00;3.00;;;;;;;;4980059;28;9197;-73
2022/10/02 14:55:26;;;;;;;;;4.00;4.00;;;;;;;;4979923;28;9028;-71
2022/10/02 14:57:57;;;;;;;;;5.67;4.67;;;;;;;;4979516;28;11864;-75
2022/10/02 15:00:23;;;;;;;;;5.00;4.00;;;;;;;;4964252;28;12901;-70
2022/10/02 15:03:27;;;;;;;;;4.33;4.00;;;;;;;;4948842;28;9144;-70
2022/10/02 15:06:11;;;;;;;;;5.00;3.00;;;;;;;;4935358;29;11559;-70
2022/10/02 15:08:39;;;;;;;;;3.00;3.00;;;;;;;;4926267;29;10372;-70
2022/10/02 15:11:10;;;;;;;;;6.00;4.00;;;;;;;;4932357;29;9456;-70
2022/10/02 15:13:43;;;;;;;;;3.00;2.00;;;;;;;;4928393;29;9233;-69
2022/10/02 15:19:15;;;;;;;;;6.00;4.00;;;;;;;;4922335;29;9703;-68
2022/10/02 15:22:03;;;;;;;;;3.33;3.33;;;;;;;;4941409;29;9122;-71
2022/10/02 15:24:31;;;;;;;;;4.67;4.67;;;;;;;;4937423;29;11410;-71
2022/10/02 15:26:56;;;;;;;;;7.00;6.00;;;;;;;;5001117;28;12994;-71
2022/10/02 15:29:43;;;;;;;;;5.00;5.00;;;;;;;;5037815;28;11366;-72
2022/10/02 15:32:14;;;;;;;;;2.33;2.33;;;;;;;;5036892;28;8843;-71
2022/10/02 15:34:48;;;;;;;;;3.67;3.00;;;;;;;;5038167;28;13185;-72
2022/10/02 15:37:27;;;;;;;;;2.00;2.00;;;;;;;;5060513;28;13689;-71
2022/10/02 15:40:02;;;;;;;;;2.00;2.00;;;;;;;;5091518;28;10595;-71
2022/10/02 15:42:47;;;;;;;;;3.00;3.00;;;;;;;;5090863;28;9020;-71
2022/10/02 15:45:32;;;;;;;;;5.00;3.33;;;;;;;;5052274;28;9901;-72
2022/10/02 15:48:04;;;;;;;;;2.67;2.00;;;;;;;;5098915;28;12775;-73
2022/10/02 15:50:29;;;;;;;;;5.67;3.00;;;;;;;;5101380;28;11951;-73
2022/10/02 15:53:00;;;;;;;;;4.00;4.00;;;;;;;;5101493;28;9123;-78
2022/10/02 15:55:36;;;;;;;;;3.00;3.00;;;;;;;;5100964;28;10474;-73
2022/10/02 15:58:10;;;;;;;;;16.75;16.25;;;;;;;;5101036;28;9183;-74
2022/10/02 16:00:59;;;;;;;;;15.00;14.00;;;;;;;;5100453;28;22425;-79
2022/10/02 16:03:44;;;;;;;;;11.00;11.00;;;;;;;;5068125;28;13728;-72
2022/10/02 16:06:15;;;;;;;;;9.75;9.00;;;;;;;;5080685;28;9498;-74
2022/10/02 16:08:47;;;;;;;;;10.25;9.00;;;;;;;;5064386;28;22728;-73
2022/10/02 16:11:15;;;;;;;;;6.67;6.67;;;;;;;;5100851;28;17780;-73
2022/10/02 16:13:59;;;;;;;;;5.00;4.00;;;;;;;;5100226;28;21432;-73
2022/10/02 16:16:38;;;;;;;;;5.33;5.33;;;;;;;;5082178;28;13773;-73
2022/10/02 16:19:17;;;;;;;;;5.33;4.00;;;;;;;;5082144;28;12361;-74
2022/10/02 16:22:02;;;;;;;;;4.00;4.00;;;;;;;;5100879;28;9499;-83
2022/10/02 16:24:42;;;;;;;;;6.75;5.00;;;;;;;;5100729;28;9355;-74
2022/10/02 16:27:14;;;;;;;;;5.67;3.67;;;;;;;;5100765;28;10364;-74
2022/10/02 16:29:42;;;;;;;;;3.00;3.00;;;;;;;;5090737;28;11935;-74
2022/10/02 16:32:30;;;;;;;;;3.25;3.00;;;;;;;;5089226;28;11949;-74
2022/10/02 16:35:16;;;;;;;;;5.00;4.00;;;;;;;;5083749;28;10284;-74
2022/10/02 16:37:44;;;;;;;;;3.00;3.00;;;;;;;;5098195;28;10364;-73
2022/10/02 16:40:28;;;;;;;;;3.00;3.00;;;;;;;;5099938;28;10322;-77
2022/10/02 16:43:14;;;;;;;;;4.00;2.00;;;;;;;;5100420;28;9322;-78
2022/10/02 16:45:59;;;;;;;;;2.67;2.67;;;;;;;;5077599;28;9350;-75
2022/10/02 16:48:28;;;;;;;;;3.50;3.50;;;;;;;;5099794;28;11621;-76
2022/10/02 16:51:12;;;;;;;;;5.75;3.50;;;;;;;;5100311;28;11501;-75
2022/10/02 16:53:43;;;;;;;;;5.00;3.33;;;;;;;;5100447;28;10273;-75
2022/10/02 16:56:11;;;;;;;;;3.00;2.50;;;;;;;;5100053;28;9501;-71
2022/10/02 16:58:49;;;;;;;;;4.00;3.33;;;;;;;;5100093;28;11375;-74
2022/10/02 17:01:18;;;;;;;;;5.33;4.00;;;;;;;;5099949;28;11383;-76
2022/10/02 17:03:47;;;;;;;;;3.00;3.00;;;;;;;;5081568;28;14900;-75
2022/10/02 17:06:23;;;;;;;;;5.25;5.00;;;;;;;;5081701;28;10777;-72
2022/10/02 17:09:04;;;;;;;;;5.50;4.00;;;;;;;;5100040;28;10596;-72
2022/10/02 17:11:50;;;;;;;;;6.00;6.00;;;;;;;;5097677;28;9606;-73
2022/10/02 17:14:39;;;;;;;;;4.00;3.75;;;;;;;;5079589;28;10373;-76
2022/10/02 17:17:18;;;;;;;;;5.00;5.00;;;;;;;;5061339;28;13638;-72
2022/10/02 17:19:49;;;;;;;;;5.50;5.50;;;;;;;;5087089;28;11405;-74
2022/10/02 17:22:33;;;;;;;;;6.25;5.25;;;;;;;;5098128;28;9531;-73
2022/10/02 17:25:01;;;;;;;;;6.75;6.75;;;;;;;;5099659;28;11448;-73
2022/10/02 17:27:36;;;;;;;;;7.75;6.00;;;;;;;;5099104;28;9637;-74
2022/10/02 17:30:15;;;;;;;;;5.25;5.25;;;;;;;;5099901;28;11621;-78
2022/10/02 17:32:44;;;;;;;;;7.75;6.75;;;;;;;;5099600;28;11388;-74
2022/10/02 17:35:30;;;;;;;;;4.75;4.00;;;;;;;;5094551;28;10878;-73
2022/10/02 17:37:58;;;;;;;;;6.75;6.00;;;;;;;;5065045;28;13680;-73
2022/10/02 17:40:28;;;;;;;;;6.50;6.25;;;;;;;;5077721;28;9907;-77
2022/10/02 17:42:54;;;;;;;;;8.75;8.75;;;;;;;;5096130;28;9862;-75
2022/10/02 17:45:34;;;;;;;;;9.50;8.25;;;;;;;;5092641;28;10442;-72
2022/10/02 17:48:18;;;;;;;;;7.25;7.25;;;;;;;;5079863;28;11672;-75
2022/10/02 17:50:56;;;;;;;;;11.75;8.25;;;;;;;;5080871;28;12249;-73
2022/10/02 17:59:01;;;;;;;;;12.25;7.75;;;;;;;;5085916;28;21274;-72
